Time;durP1;ratioP1;P1;durP2;ratioP2;P2;SDS_P1;SDS_P2;PMS_P1;PMS_P2;Temp;Humidity;BMP_temperature;BMP_pressure;BME280_temperature;BME280_humidity;BME280_pressure;Samples;Min_cycle;Max_cycle;Signal;HPM_P1;HPM_P2
2021/06/22 00:02:24;;;;;;;9.75;4.97;;;;;;;21.79;63.67;94661.72;5029232;23;20088;-80
2021/06/22 00:04:49;;;;;;;7.10;5.00;;;;;;;21.80;63.90;94667.81;4984180;28;20042;-80
2021/06/22 00:07:20;;;;;;;5.38;4.53;;;;;;;21.97;63.79;94677.69;4969371;28;20321;-79
2021/06/22 00:09:45;;;;;;;7.75;5.10;;;;;;;22.01;63.72;94682.06;4965377;28;20069;-80
2021/06/22 00:12:11;;;;;;;12.52;4.25;;;;;;;21.84;64.24;94679.38;4984304;28;20026;-79
2021/06/22 00:14:36;;;;;;;7.10;4.47;;;;;;;21.94;63.81;94681.72;4965962;28;20525;-79
2021/06/22 00:17:02;;;;;;;6.53;4.78;;;;;;;22.04;63.68;94683.31;4983254;28;20034;-80
2021/06/22 00:19:28;;;;;;;8.40;5.15;;;;;;;22.07;63.31;94683.50;4967413;28;20027;-79
2021/06/22 00:21:53;;;;;;;9.95;4.70;;;;;;;22.10;63.09;94684.75;4932188;28;20030;-80
2021/06/22 00:24:19;;;;;;;5.60;4.10;;;;;;;22.09;63.43;94681.34;4964531;28;20035;-79
2021/06/22 00:26:44;;;;;;;15.82;4.20;;;;;;;22.04;63.37;94678.03;4983156;28;20027;-79
2021/06/22 00:29:10;;;;;;;9.90;4.38;;;;;;;22.03;63.66;94673.81;4983474;28;20467;-79
2021/06/22 00:31:36;;;;;;;8.63;4.70;;;;;;;22.09;63.35;94676.03;4951290;28;20034;-79
2021/06/22 00:34:01;;;;;;;6.57;4.45;;;;;;;22.15;63.40;94668.75;4966468;28;20049;-79
2021/06/22 00:36:27;;;;;;;9.30;5.00;;;;;;;22.16;63.34;94675.59;4933894;28;20495;-79
2021/06/22 00:38:52;;;;;;;11.68;5.13;;;;;;;22.16;63.37;94663.16;4980953;28;20031;-79
2021/06/22 00:41:19;;;;;;;12.77;5.20;;;;;;;22.15;63.30;94650.22;4980181;28;20034;-79
2021/06/22 00:43:44;;;;;;;7.47;5.22;;;;;;;22.08;63.82;94650.66;4949502;28;20030;-79
2021/06/22 00:46:10;;;;;;;10.77;5.68;;;;;;;22.07;63.57;94649.09;4933611;28;20045;-79
2021/06/22 00:48:35;;;;;;;12.85;5.95;;;;;;;22.12;63.22;94646.28;4949096;28;20422;-79
2021/06/22 00:51:01;;;;;;;13.38;5.38;;;;;;;22.18;63.46;94646.94;4949851;28;20034;-79
2021/06/22 00:53:27;;;;;;;12.25;6.30;;;;;;;22.23;63.47;94646.00;4983337;28;20026;-79
2021/06/22 00:55:53;;;;;;;11.75;6.40;;;;;;;22.23;63.14;94652.09;4956842;28;20563;-79
2021/06/22 00:58:19;;;;;;;13.77;6.75;;;;;;;22.20;63.29;94659.88;4981924;28;20023;-79
2021/06/22 01:00:44;;;;;;;10.40;6.60;;;;;;;22.25;63.03;94660.50;4983570;28;20026;-79
2021/06/22 01:03:10;;;;;;;17.60;5.95;;;;;;;22.17;63.43;94662.06;4983672;28;20026;-79
2021/06/22 01:05:35;;;;;;;12.00;6.15;;;;;;;22.09;63.60;94673.38;4980940;28;20038;-79
2021/06/22 01:08:01;;;;;;;13.60;6.25;;;;;;;21.84;63.96;94666.91;4932663;28;20711;-79
2021/06/22 01:10:26;;;;;;;13.32;7.00;;;;;;;21.64;64.96;94650.75;4954587;28;20094;-79
2021/06/22 01:12:52;;;;;;;8.70;6.97;;;;;;;21.73;64.80;94638.34;4992225;28;20035;-78
2021/06/22 01:15:20;;;;;;;10.50;6.00;;;;;;;21.82;64.41;94637.31;4968273;28;20040;-79
2021/06/22 01:17:45;;;;;;;9.70;6.05;;;;;;;21.90;64.35;94635.78;4993311;28;20057;-79
2021/06/22 01:20:11;;;;;;;10.30;6.18;;;;;;;21.92;64.39;94625.66;4985093;28;20498;-79
2021/06/22 01:22:41;;;;;;;18.48;6.40;;;;;;;21.98;64.50;94627.09;4984224;28;20030;-79
2021/06/22 01:25:06;;;;;;;8.40;6.07;;;;;;;22.00;64.57;94630.19;4968231;28;20030;-79
2021/06/22 01:27:32;;;;;;;11.77;6.00;;;;;;;22.01;64.47;94631.75;5039881;23;20050;-79
2021/06/22 01:30:07;;;;;;;16.13;6.13;;;;;;;21.96;64.66;94634.53;5041373;28;20028;-79
2021/06/22 01:32:42;;;;;;;9.95;5.78;;;;;;;21.93;64.79;94640.44;5039714;28;20036;-79
2021/06/22 01:35:08;;;;;;;6.38;4.68;;;;;;;21.85;64.62;94641.22;5042888;28;20319;-79
2021/06/22 01:37:58;;;;;;;6.35;5.00;;;;;;;21.80;64.93;94644.78;5042799;28;20091;-79
2021/06/22 01:40:24;;;;;;;4.85;4.35;;;;;;;21.78;65.17;94632.91;5008519;28;20123;-79
2021/06/22 01:42:50;;;;;;;7.80;4.47;;;;;;;21.76;65.32;94640.38;4989283;28;20119;-79
2021/06/22 01:45:16;;;;;;;4.25;3.92;;;;;;;21.75;65.22;94641.47;5026068;28;20057;-79
2021/06/22 01:47:41;;;;;;;7.72;4.20;;;;;;;21.72;65.14;94642.09;5043266;28;20025;-79
2021/06/22 01:50:07;;;;;;;4.90;4.22;;;;;;;21.70;65.31;94647.69;4991532;28;20470;-79
2021/06/22 01:52:33;;;;;;;25.20;4.38;;;;;;;21.70;65.57;94654.84;5022143;28;20068;-79
2021/06/22 01:55:04;;;;;;;7.78;4.50;;;;;;;21.69;65.46;94655.94;5039925;28;20424;-78
2021/06/22 01:57:30;;;;;;;6.38;4.97;;;;;;;21.60;65.81;94668.34;5020327;28;20040;-78
2021/06/22 01:59:55;;;;;;;9.15;4.80;;;;;;;21.45;66.18;94672.94;5005295;28;20091;-78
2021/06/22 02:02:21;;;;;;;6.63;5.40;;;;;;;21.43;66.59;94674.31;5022620;28;20034;-78
2021/06/22 02:04:46;;;;;;;6.47;4.95;;;;;;;21.39;66.91;94674.16;5039895;28;20034;-78
2021/06/22 02:07:12;;;;;;;16.05;5.88;;;;;;;21.32;67.14;94671.16;5021837;28;20021;-78
2021/06/22 02:09:38;;;;;;;6.68;5.85;;;;;;;21.30;67.32;94668.03;5040054;28;20439;-79
2021/06/22 02:12:04;;;;;;;7.10;5.30;;;;;;;21.28;67.36;94664.91;5003529;28;20474;-78
2021/06/22 02:14:29;;;;;;;11.73;5.68;;;;;;;21.29;67.10;94658.53;5006946;28;20034;-79
2021/06/22 02:16:55;;;;;;;16.60;5.82;;;;;;;21.30;67.54;94659.31;5020844;28;20671;-79
2021/06/22 02:19:20;;;;;;;9.15;5.35;;;;;;;21.29;67.47;94658.53;5040907;28;20037;-79
2021/06/22 02:21:46;;;;;;;8.23;5.13;;;;;;;21.30;67.36;94665.38;5042002;28;20094;-79
2021/06/22 02:24:11;;;;;;;27.50;5.90;;;;;;;21.30;67.47;94664.59;5041330;28;20028;-79
2021/06/22 02:26:37;;;;;;;15.27;5.65;;;;;;;21.30;67.42;94667.25;5041090;28;20087;-79
2021/06/22 02:29:02;;;;;;;16.85;6.47;;;;;;;21.29;67.59;94653.25;5033386;28;20170;-79
2021/06/22 02:31:28;;;;;;;16.65;6.32;;;;;;;21.29;67.40;94647.94;4994231;28;20029;-79
2021/06/22 02:33:53;;;;;;;10.00;6.80;;;;;;;21.27;67.64;94652.75;5043187;28;20053;-79
2021/06/22 02:36:23;;;;;;;18.23;7.10;;;;;;;21.28;67.38;94647.16;5024417;28;20037;-79
2021/06/22 02:38:48;;;;;;;17.23;8.48;;;;;;;21.27;67.21;94655.41;5043193;28;20445;-79
2021/06/22 02:41:14;;;;;;;22.85;10.70;;;;;;;21.25;67.29;94657.56;4992496;28;20542;-78
2021/06/22 02:43:39;;;;;;;20.80;9.00;;;;;;;21.22;67.37;94653.66;5041976;28;20079;-78
2021/06/22 02:46:05;;;;;;;28.17;8.95;;;;;;;21.23;67.46;94654.44;5039544;28;20025;-78
2021/06/22 02:48:30;;;;;;;26.17;8.20;;;;;;;21.22;67.21;94664.22;5041790;28;20066;-78
2021/06/22 02:50:56;;;;;;;13.98;6.93;;;;;;;21.21;67.11;94662.66;4990293;28;20021;-78
2021/06/22 02:53:21;;;;;;;6.65;6.00;;;;;;;21.25;66.83;94668.16;5007961;28;20040;-78
2021/06/22 02:55:53;;;;;;;17.27;6.00;;;;;;;21.27;66.83;94671.28;5007138;28;20035;-78
2021/06/22 02:58:18;;;;;;;19.67;6.72;;;;;;;21.22;66.86;94663.44;5021520;28;20037;-78
2021/06/22 03:00:44;;;;;;;9.23;6.13;;;;;;;21.26;66.88;94659.13;5122199;22;20524;-78
2021/06/22 03:03:09;;;;;;;7.63;5.65;;;;;;;21.28;66.61;94659.59;5030821;28;20045;-78
2021/06/22 03:05:35;;;;;;;9.07;5.65;;;;;;;21.28;66.51;94672.84;5032497;28;20247;-78
2021/06/22 03:08:01;;;;;;;11.10;5.40;;;;;;;21.25;66.73;94668.16;5022930;28;20041;-78
2021/06/22 03:10:26;;;;;;;10.20;5.53;;;;;;;21.32;66.38;94663.22;5022967;28;20033;-78
2021/06/22 03:12:52;;;;;;;11.98;6.68;;;;;;;21.36;65.96;94668.69;5041589;28;20056;-79
2021/06/22 03:17:51;;;;;;;9.55;6.00;;;;;;;21.40;65.05;94674.94;5021688;23;20038;-78
2021/06/22 03:20:16;;;;;;;6.57;5.97;;;;;;;21.47;65.50;94669.97;5021385;28;20437;-81
2021/06/22 03:22:42;;;;;;;11.52;6.28;;;;;;;21.56;65.25;94663.66;5011041;28;20096;-78
2021/06/22 03:25:09;;;;;;;13.13;6.03;;;;;;;21.64;65.12;94674.59;4992982;28;20037;-79
2021/06/22 03:27:34;;;;;;;12.05;6.32;;;;;;;21.79;64.88;94676.84;5010071;28;20045;-77
2021/06/22 03:30:00;;;;;;;20.70;7.18;;;;;;;21.96;64.22;94666.31;5011020;28;20041;-78
2021/06/22 03:32:25;;;;;;;14.32;5.97;;;;;;;22.15;63.28;94676.69;4978465;28;20128;-78
2021/06/22 03:34:52;;;;;;;10.65;6.32;;;;;;;22.34;62.39;94676.44;4994274;28;20045;-78
2021/06/22 03:37:25;;;;;;;12.65;6.15;;;;;;;22.47;62.26;94670.22;5011099;28;20057;-78
2021/06/22 03:39:50;;;;;;;24.73;6.55;;;;;;;22.59;61.82;94673.03;5008593;28;20040;-78
2021/06/22 03:42:16;;;;;;;11.30;6.22;;;;;;;22.72;61.54;94681.91;5009218;28;20029;-78
2021/06/22 03:44:44;;;;;;;7.35;5.82;;;;;;;22.86;60.96;94676.50;5009138;28;20053;-78
2021/06/22 03:47:09;;;;;;;14.32;6.85;;;;;;;23.02;60.96;94681.03;4992598;28;20121;-78
2021/06/22 03:49:35;;;;;;;25.42;6.85;;;;;;;23.17;59.92;94677.13;4978139;28;20037;-77
2021/06/22 03:52:06;;;;;;;6.22;5.55;;;;;;;23.32;59.10;94673.97;5008654;28;20543;-78
2021/06/22 03:54:32;;;;;;;10.60;6.43;;;;;;;23.44;58.94;94677.84;5009654;28;20205;-78
2021/06/22 03:56:57;;;;;;;30.67;6.50;;;;;;;23.59;58.59;94690.63;5010337;28;20518;-77
2021/06/22 03:59:26;;;;;;;14.70;6.13;;;;;;;23.78;58.04;94682.31;5010338;28;20041;-78
2021/06/22 04:01:51;;;;;;;14.32;6.35;;;;;;;23.91;57.70;94678.66;4994208;28;20127;-79
2021/06/22 04:04:17;;;;;;;21.08;5.55;;;;;;;24.16;57.14;94683.09;5011785;28;20061;-78
2021/06/22 04:06:42;;;;;;;13.38;6.18;;;;;;;24.78;55.40;94678.97;5009117;28;20034;-78
2021/06/22 04:09:08;;;;;;;17.75;5.53;;;;;;;25.51;53.07;94679.28;5011188;28;20044;-79
2021/06/22 04:11:33;;;;;;;13.82;5.57;;;;;;;25.88;51.87;94684.75;4993300;28;20030;-78
2021/06/22 04:13:59;;;;;;;9.50;6.10;;;;;;;26.37;50.39;94692.78;5010993;28;20041;-79
2021/06/22 04:16:24;;;;;;;9.23;5.43;;;;;;;26.85;49.49;94687.38;4995127;28;20510;-79
2021/06/22 04:18:50;;;;;;;21.27;6.13;;;;;;;27.67;47.12;94689.63;5011951;28;20033;-79
2021/06/22 04:21:18;;;;;;;11.52;5.80;;;;;;;28.59;44.81;94687.63;4994706;28;20036;-78
2021/06/22 04:23:44;;;;;;;22.88;6.13;;;;;;;29.74;42.41;94694.16;4979612;28;20528;-80
2021/06/22 04:26:09;;;;;;;17.73;5.60;;;;;;;30.66;39.75;94684.94;4996415;28;20041;-80
2021/06/22 04:28:35;;;;;;;18.63;6.05;;;;;;;31.64;38.14;94683.84;5013138;28;20033;-81
2021/06/22 04:31:00;;;;;;;19.20;5.43;;;;;;;32.49;35.77;94693.81;5014995;28;20026;-80
2021/06/22 04:33:26;;;;;;;13.57;5.18;;;;;;;33.39;34.67;94701.25;4995135;28;20048;-80
2021/06/22 04:35:51;;;;;;;19.48;5.85;;;;;;;34.29;32.43;94692.94;5013771;28;20468;-80
2021/06/22 04:38:16;;;;;;;18.77;4.72;;;;;;;35.00;31.43;94708.31;5013998;28;20040;-80
2021/06/22 04:40:42;;;;;;;13.93;4.18;;;;;;;35.66;30.24;94711.16;4980304;28;20409;-81
2021/06/22 04:43:08;;;;;;;15.50;4.20;;;;;;;36.41;29.23;94712.63;5012553;28;20096;-81
2021/06/22 04:45:34;;;;;;;17.00;4.70;;;;;;;37.23;27.79;94712.59;5012692;28;20038;-85
2021/06/22 04:48:07;;;;;;;12.05;4.50;;;;;;;37.90;26.90;94705.56;4982742;28;20052;-77
2021/06/22 04:50:33;;;;;;;11.93;4.63;;;;;;;38.70;25.87;94710.13;5015450;28;20045;-85
2021/06/22 04:52:58;;;;;;;11.32;4.25;;;;;;;39.43;25.03;94715.78;5016552;28;20060;-84
2021/06/22 04:55:25;;;;;;;4.47;3.35;;;;;;;40.18;23.97;94710.28;4998807;28;20491;-82
2021/06/22 04:57:51;;;;;;;13.40;4.50;;;;;;;40.92;22.78;94717.84;5015839;28;20053;-82
2021/06/22 05:00:17;;;;;;;21.25;4.50;;;;;;;41.54;22.52;94732.13;5015305;28;20148;-82
2021/06/22 05:02:43;;;;;;;11.98;3.55;;;;;;;42.11;21.69;94732.44;4998330;28;20057;-82
2021/06/22 05:05:09;;;;;;;7.10;3.15;;;;;;;42.60;21.40;94726.59;5005838;28;20045;-81
2021/06/22 05:07:35;;;;;;;10.85;3.60;;;;;;;43.06;20.56;94727.78;5035345;28;20032;-81
2021/06/22 05:10:00;;;;;;;9.57;2.92;;;;;;;43.51;19.87;94723.88;5030724;28;20033;-82
2021/06/22 05:12:26;;;;;;;11.52;3.97;;;;;;;43.88;19.50;94720.13;5050192;23;20052;-82
2021/06/22 05:14:54;;;;;;;9.00;3.03;;;;;;;44.20;19.04;94718.13;5015634;28;20030;-82
2021/06/22 05:17:20;;;;;;;8.68;2.70;;;;;;;44.47;18.81;94720.19;5016175;28;20045;-82
2021/06/22 05:19:45;;;;;;;10.02;2.97;;;;;;;44.73;18.66;94731.66;5018258;28;20030;-84
2021/06/22 05:22:11;;;;;;;7.63;2.72;;;;;;;45.03;18.13;94722.56;5018726;28;20038;-82
2021/06/22 05:24:36;;;;;;;5.35;2.53;;;;;;;45.05;18.07;94724.84;5019367;28;20112;-82
2021/06/22 05:27:02;;;;;;;8.35;2.60;;;;;;;45.02;17.89;94725.75;5019520;28;20037;-81
2021/06/22 05:29:28;;;;;;;6.72;2.22;;;;;;;44.29;18.43;94727.16;4982069;28;20037;-82
2021/06/22 05:32:09;;;;;;;11.48;2.92;;;;;;;43.80;19.02;94721.63;4982065;28;20026;-82
2021/06/22 05:34:34;;;;;;;13.48;2.70;;;;;;;43.49;19.30;94731.78;4997460;28;20561;-82
2021/06/22 05:37:00;;;;;;;6.63;2.70;;;;;;;43.81;19.21;94731.38;4997693;28;20036;-80
2021/06/22 05:39:28;;;;;;;13.20;3.05;;;;;;;44.17;18.63;94730.00;5015069;28;20061;-80
2021/06/22 05:41:54;;;;;;;8.73;2.85;;;;;;;44.37;18.66;94733.09;4995573;28;20073;-81
2021/06/22 05:44:19;;;;;;;4.68;2.53;;;;;;;44.60;18.32;94729.09;5016390;28;20026;-80
2021/06/22 05:46:45;;;;;;;6.35;2.50;;;;;;;44.87;17.89;94720.09;5014783;28;20033;-80
2021/06/22 05:49:31;;;;;;;8.02;2.92;;;;;;;44.74;17.77;94717.50;4997268;28;20108;-81
2021/06/22 05:51:57;;;;;;;5.03;2.95;;;;;;;45.05;18.35;94719.34;5014359;28;20462;-81
2021/06/22 05:54:22;;;;;;;5.68;2.08;;;;;;;45.29;17.68;94716.78;4998123;28;20029;-81
2021/06/22 05:56:48;;;;;;;17.00;2.90;;;;;;;45.23;17.45;94713.09;4998756;28;20038;-81
2021/06/22 05:59:13;;;;;;;13.20;3.00;;;;;;;44.35;18.21;94713.59;4982115;28;20026;-83
2021/06/22 06:01:39;;;;;;;9.55;2.63;;;;;;;43.77;19.09;94714.28;4998455;28;20636;-82
2021/06/22 06:04:04;;;;;;;10.43;2.80;;;;;;;43.52;19.42;94717.94;4983953;28;20026;-82
2021/06/22 06:06:30;;;;;;;9.25;2.42;;;;;;;43.34;19.45;94715.88;5001196;28;20101;-83
2021/06/22 06:08:56;;;;;;;5.38;2.67;;;;;;;43.05;19.71;94710.59;4968888;28;20040;-83
2021/06/22 06:11:21;;;;;;;14.57;3.35;;;;;;;43.08;19.73;94712.44;5000195;28;20034;-82
2021/06/22 06:13:47;;;;;;;7.10;2.50;;;;;;;43.47;19.58;94706.81;5018069;28;20585;-82
2021/06/22 06:16:21;;;;;;;4.47;2.63;;;;;;;43.39;19.38;94718.00;5017935;28;20049;-82
2021/06/22 06:18:47;;;;;;;12.63;3.30;;;;;;;42.96;19.82;94715.25;5001335;28;20116;-82
2021/06/22 06:21:13;;;;;;;8.25;3.10;;;;;;;42.86;19.90;94719.84;5018804;28;20048;-82
2021/06/22 06:23:43;;;;;;;12.10;3.17;;;;;;;41.82;20.89;94724.31;5020263;28;20034;-82
2021/06/22 06:26:11;;;;;;;11.05;3.20;;;;;;;42.03;21.00;94736.56;5002340;28;20022;-82
2021/06/22 06:28:50;;;;;;;13.90;3.25;;;;;;;41.36;21.50;94723.69;4986388;28;20057;-82
2021/06/22 06:31:16;;;;;;;3.17;2.65;;;;;;;41.31;21.62;94721.47;4986447;28;20037;-82
2021/06/22 06:33:41;;;;;;;8.05;2.88;;;;;;;41.60;21.58;94721.44;4968470;28;20046;-82
2021/06/22 06:36:07;;;;;;;6.43;3.17;;;;;;;41.21;21.64;94722.53;5001890;28;20086;-82
2021/06/22 06:38:32;;;;;;;4.15;2.70;;;;;;;41.44;21.42;94738.66;4998345;28;20038;-81
2021/06/22 06:40:58;;;;;;;6.03;2.90;;;;;;;41.49;21.43;94732.66;4979391;28;20068;-79
2021/06/22 06:43:23;;;;;;;8.60;2.70;;;;;;;41.98;20.89;94732.41;5015200;28;20053;-80
2021/06/22 06:45:49;;;;;;;5.10;3.13;;;;;;;42.18;20.30;94738.47;5044055;22;20060;-80
2021/06/22 06:48:14;;;;;;;14.73;3.78;;;;;;;42.35;20.38;94741.06;5047114;28;20029;-79
2021/06/22 06:50:39;;;;;;;5.90;2.95;;;;;;;42.45;20.17;94737.22;5047209;28;20034;-82
2021/06/22 06:53:05;;;;;;;12.13;3.35;;;;;;;42.37;20.73;94738.66;5038877;28;20097;-82
2021/06/22 06:55:41;;;;;;;8.82;3.40;;;;;;;41.84;20.82;94741.06;5036760;28;20040;-82
2021/06/22 06:58:06;;;;;;;11.77;3.80;;;;;;;41.73;21.08;94748.78;5039285;28;20097;-82
2021/06/22 07:00:36;;;;;;;19.25;3.70;;;;;;;41.56;21.38;94751.56;5039141;28;20033;-82
2021/06/22 07:03:02;;;;;;;9.70;3.20;;;;;;;41.24;21.80;94743.50;5021364;28;20040;-82
2021/06/22 07:05:28;;;;;;;17.73;4.05;;;;;;;41.12;21.96;94744.19;5021149;28;20033;-82
2021/06/22 07:07:53;;;;;;;15.05;3.83;;;;;;;40.78;22.18;94740.75;5042738;28;20038;-81
2021/06/22 07:10:19;;;;;;;6.70;2.53;;;;;;;40.34;22.91;94752.34;5025767;28;20036;-82
2021/06/22 07:12:45;;;;;;;13.38;3.83;;;;;;;39.70;23.67;94754.50;5042046;28;20045;-81
2021/06/22 07:15:10;;;;;;;11.00;3.50;;;;;;;39.46;23.92;94753.03;5036234;28;20029;-81
2021/06/22 07:17:39;;;;;;;9.38;3.13;;;;;;;39.10;24.47;94752.97;5038079;28;20455;-82
2021/06/22 07:20:08;;;;;;;9.32;3.38;;;;;;;38.85;24.80;94753.38;5037849;28;20588;-82
2021/06/22 07:22:34;;;;;;;23.45;3.20;;;;;;;38.53;25.44;94743.78;5037892;28;20041;-81
2021/06/22 07:25:00;;;;;;;4.78;2.97;;;;;;;38.04;26.33;94754.22;5036128;28;20087;-81
2021/06/22 07:27:26;;;;;;;9.30;3.13;;;;;;;37.85;26.33;94744.78;5037763;28;20127;-81
2021/06/22 07:29:51;;;;;;;15.70;3.03;;;;;;;37.59;26.84;94752.88;5038464;28;20029;-82
2021/06/22 07:32:17;;;;;;;8.25;3.75;;;;;;;37.32;27.02;94750.09;5036277;28;20060;-81
2021/06/22 07:34:42;;;;;;;9.43;2.95;;;;;;;37.18;27.41;94753.72;5037279;28;20033;-81
2021/06/22 07:37:10;;;;;;;16.25;3.40;;;;;;;36.74;28.45;94744.44;5037526;28;20523;-81
2021/06/22 07:39:35;;;;;;;10.60;4.05;;;;;;;36.58;28.38;94758.50;5036333;28;20717;-81
2021/06/22 07:42:04;;;;;;;6.55;3.63;;;;;;;36.19;28.94;94747.97;5035616;28;20025;-81
2021/06/22 07:44:29;;;;;;;8.13;3.65;;;;;;;35.95;29.13;94743.47;5038367;28;20089;-81
2021/06/22 07:46:54;;;;;;;12.80;5.47;;;;;;;35.98;29.77;94748.13;5036046;28;20047;-81
2021/06/22 07:49:20;;;;;;;26.13;5.40;;;;;;;35.66;29.90;94753.69;5036604;28;20033;-81
2021/06/22 07:51:45;;;;;;;15.75;5.57;;;;;;;35.14;30.90;94746.09;5035803;28;20092;-81
2021/06/22 07:54:11;;;;;;;12.05;4.57;;;;;;;34.90;30.96;94745.00;5037377;28;20040;-81
2021/06/22 07:56:38;;;;;;;20.88;6.10;;;;;;;34.85;31.29;94748.13;5037491;28;20044;-82
2021/06/22 07:59:04;;;;;;;6.47;3.08;;;;;;;34.82;30.87;94748.88;5018904;28;20033;-81
2021/06/22 08:01:29;;;;;;;4.18;3.13;;;;;;;34.80;31.34;94748.47;5002071;28;20025;-83
2021/06/22 08:03:55;;;;;;;12.27;3.80;;;;;;;34.82;31.02;94745.38;5036869;28;20029;-83
2021/06/22 08:06:20;;;;;;;23.40;4.18;;;;;;;34.78;31.60;94739.22;5037652;28;20796;-82
2021/06/22 08:08:45;;;;;;;6.55;3.83;;;;;;;34.74;31.52;94741.16;5036741;28;20385;-81
2021/06/22 08:11:11;;;;;;;10.70;3.40;;;;;;;34.65;31.86;94735.38;5036193;28;20059;-82
2021/06/22 08:13:36;;;;;;;10.68;3.65;;;;;;;34.66;31.51;94731.50;5020094;28;20037;-82
2021/06/22 08:16:02;;;;;;;4.68;2.80;;;;;;;34.66;31.39;94729.59;5037191;28;20041;-82
2021/06/22 08:18:28;;;;;;;17.80;4.18;;;;;;;34.57;31.64;94727.28;5037472;28;20045;-82
2021/06/22 08:20:54;;;;;;;16.17;5.95;;;;;;;34.20;32.94;94726.88;5019272;28;20460;-82
2021/06/22 08:23:19;;;;;;;6.55;3.60;;;;;;;34.10;32.66;94723.00;5035486;28;20548;-82
2021/06/22 08:25:45;;;;;;;9.65;4.55;;;;;;;34.00;32.98;94724.53;5019064;28;20201;-82
2021/06/22 08:28:10;;;;;;;14.40;4.60;;;;;;;33.95;33.45;94730.31;5035581;28;20513;-82
2021/06/22 08:30:36;;;;;;;17.38;4.30;;;;;;;33.91;33.43;94721.44;5019334;28;20522;-81
2021/06/22 08:33:02;;;;;;;7.20;3.35;;;;;;;33.93;32.66;94726.47;5036343;28;20041;-83
2021/06/22 08:35:31;;;;;;;7.07;3.50;;;;;;;33.88;32.60;94730.31;5035596;28;20053;-82
2021/06/22 08:37:56;;;;;;;21.60;5.57;;;;;;;33.77;33.91;94726.78;5035303;28;20029;-82
2021/06/22 08:40:22;;;;;;;8.60;3.33;;;;;;;33.65;33.13;94717.13;5037002;28;20436;-82
2021/06/22 08:42:50;;;;;;;8.30;3.40;;;;;;;33.58;33.38;94725.19;5034576;28;20033;-82
2021/06/22 08:45:16;;;;;;;14.13;4.18;;;;;;;33.57;33.26;94722.88;5035150;28;20032;-82
2021/06/22 08:47:42;;;;;;;11.25;4.97;;;;;;;33.57;33.74;94728.28;5036583;28;20038;-82
2021/06/22 08:50:08;;;;;;;6.88;3.55;;;;;;;33.56;33.23;94727.50;5035376;28;20033;-82
2021/06/22 08:52:35;;;;;;;9.50;4.20;;;;;;;33.51;33.90;94727.09;5036067;28;20041;-82
2021/06/22 08:55:01;;;;;;;4.35;3.70;;;;;;;33.32;34.32;94728.91;5040021;28;20025;-82
2021/06/22 08:57:27;;;;;;;9.93;5.75;;;;;;;33.14;35.91;94728.84;5032729;28;20092;-80
2021/06/22 08:59:52;;;;;;;22.15;6.78;;;;;;;32.98;36.25;94719.53;5032665;28;20025;-81
2021/06/22 09:02:30;;;;;;;14.98;4.82;;;;;;;32.78;35.83;94721.69;5039841;28;20025;-82
2021/06/22 09:04:56;;;;;;;10.93;4.38;;;;;;;32.77;34.89;94726.31;5036350;28;20030;-82
2021/06/22 09:07:48;;;;;;;8.48;4.95;;;;;;;32.69;35.46;94724.72;5002410;28;20060;-81
2021/06/22 09:10:46;;;;;;;7.47;4.47;;;;;;;32.61;35.84;94722.34;5017245;28;20060;-82
2021/06/22 09:13:20;;;;;;;22.27;5.70;;;;;;;32.46;36.38;94716.88;5033350;28;20041;-82
2021/06/22 09:15:47;;;;;;;18.00;4.60;;;;;;;32.36;36.07;94704.09;5038049;28;20037;-82
2021/06/22 09:18:23;;;;;;;9.23;5.30;;;;;;;32.42;36.61;94726.06;5037460;28;20056;-82
2021/06/22 09:20:49;;;;;;;12.60;4.40;;;;;;;32.34;36.29;94714.47;5040588;28;20052;-82
2021/06/22 09:23:19;;;;;;;22.52;5.35;;;;;;;32.29;36.43;94719.44;5010440;28;20034;-82
2021/06/22 09:25:46;;;;;;;9.25;4.80;;;;;;;32.25;36.76;94717.47;5009350;28;20116;-82
2021/06/22 09:28:12;;;;;;;19.05;5.15;;;;;;;32.19;36.97;94708.16;5034978;28;20053;-82
2021/06/22 09:30:43;;;;;;;14.10;5.55;;;;;;;32.17;36.89;94721.22;5035778;28;20405;-82
2021/06/22 09:33:22;;;;;;;20.52;6.13;;;;;;;32.13;37.73;94725.81;5034611;28;20052;-82
2021/06/22 09:35:49;;;;;;;17.45;5.88;;;;;;;32.10;37.57;94720.41;5035233;28;20029;-82
2021/06/22 09:38:15;;;;;;;14.18;4.70;;;;;;;32.04;37.00;94721.88;5036008;28;20037;-82
2021/06/22 09:40:40;;;;;;;14.85;6.32;;;;;;;32.02;38.04;94713.41;5037371;28;20132;-82
2021/06/22 09:43:06;;;;;;;14.15;5.47;;;;;;;31.96;37.77;94715.66;5038694;28;20034;-82
2021/06/22 09:45:31;;;;;;;17.02;5.53;;;;;;;31.91;37.83;94708.72;5039325;28;20513;-82
2021/06/22 09:48:02;;;;;;;13.43;5.60;;;;;;;31.88;37.11;94716.72;5038226;28;20021;-81
2021/06/22 09:50:36;;;;;;;8.95;5.20;;;;;;;31.80;37.38;94718.59;5038273;28;20049;-82
2021/06/22 09:53:27;;;;;;;15.35;5.68;;;;;;;31.70;37.85;94713.06;5022139;28;20033;-82
2021/06/22 09:55:52;;;;;;;20.03;7.00;;;;;;;31.65;38.54;94720.31;5038065;28;20029;-82
2021/06/22 09:58:35;;;;;;;26.33;7.88;;;;;;;31.60;38.42;94715.28;5037472;28;20040;-81
2021/06/22 10:01:01;;;;;;;16.45;5.95;;;;;;;31.57;38.30;94720.63;5021531;28;20040;-82
2021/06/22 10:03:35;;;;;;;18.67;6.90;;;;;;;31.50;38.12;94720.53;5021408;28;20025;-82
2021/06/22 10:06:05;;;;;;;19.33;6.95;;;;;;;31.48;38.75;94712.84;5040510;28;20091;-81
2021/06/22 10:08:49;;;;;;;32.03;8.00;;;;;;;31.49;40.04;94708.25;5037414;28;20108;-82
2021/06/22 10:11:31;;;;;;;19.88;6.20;;;;;;;31.46;39.03;94717.81;5019751;28;20108;-82
2021/06/22 10:13:57;;;;;;;17.00;6.68;;;;;;;31.47;38.01;94714.00;5038365;28;20059;-82
2021/06/22 10:16:23;;;;;;;19.80;6.50;;;;;;;31.48;38.31;94704.00;5023100;28;20509;-82
2021/06/22 10:18:49;;;;;;;24.35;6.97;;;;;;;31.36;39.14;94700.44;5039982;28;20056;-82
2021/06/22 10:21:16;;;;;;;15.68;5.72;;;;;;;31.30;38.89;94695.75;5038202;28;20033;-82
2021/06/22 10:23:41;;;;;;;23.83;6.47;;;;;;;31.24;38.81;94705.25;5038361;28;20049;-83
2021/06/22 10:26:07;;;;;;;17.00;7.13;;;;;;;31.31;38.51;94702.66;5021465;28;20037;-82
2021/06/22 10:28:33;;;;;;;19.45;7.30;;;;;;;31.27;38.79;94693.81;5038266;28;20038;-82
2021/06/22 10:30:59;;;;;;;18.00;6.35;;;;;;;31.28;39.30;94704.19;5022060;28;20041;-82
2021/06/22 10:33:24;;;;;;;19.00;6.72;;;;;;;31.23;39.40;94695.66;5038131;28;20026;-81
2021/06/22 10:35:50;;;;;;;18.17;6.25;;;;;;;31.20;39.45;94697.16;5097969;22;20019;-81
2021/06/22 10:38:16;;;;;;;31.25;7.65;;;;;;;31.22;39.70;94683.38;5037778;28;20124;-81
2021/06/22 10:40:42;;;;;;;12.55;6.25;;;;;;;31.28;38.89;94698.03;5002803;28;20056;-81
2021/06/22 10:43:07;;;;;;;15.25;6.35;;;;;;;31.24;38.77;94689.94;5020007;28;20515;-81
2021/06/22 10:45:32;;;;;;;26.77;7.55;;;;;;;31.18;39.13;94699.44;5020375;28;20029;-81
2021/06/22 10:47:59;;;;;;;24.13;6.85;;;;;;;31.15;39.04;94699.38;5001211;28;20129;-81
2021/06/22 10:50:25;;;;;;;18.45;6.82;;;;;;;31.10;39.57;94691.66;5018554;28;20029;-81
2021/06/22 10:52:56;;;;;;;14.63;6.30;;;;;;;31.17;39.00;94699.78;5038070;28;20063;-81
2021/06/22 10:55:28;;;;;;;20.33;6.70;;;;;;;31.13;39.12;94693.59;5037823;28;20080;-82
2021/06/22 10:57:56;;;;;;;29.27;8.07;;;;;;;31.15;38.90;94694.00;5038579;28;20048;-81
2021/06/22 11:00:21;;;;;;;24.63;7.55;;;;;;;31.15;39.08;94689.41;5036942;28;20432;-81
2021/06/22 11:03:03;;;;;;;33.88;8.05;;;;;;;31.15;38.96;94696.69;5021790;28;20061;-81
2021/06/22 11:05:29;;;;;;;20.42;5.85;;;;;;;31.19;38.48;94697.53;5037942;28;20033;-81
2021/06/22 11:08:13;;;;;;;34.42;7.43;;;;;;;31.13;39.61;94689.00;5002155;28;20493;-81
2021/06/22 11:10:42;;;;;;;20.98;7.53;;;;;;;31.08;39.37;94683.97;5036377;28;20034;-81
2021/06/22 11:13:08;;;;;;;34.97;7.15;;;;;;;31.00;38.78;94693.81;5018859;28;20029;-81
2021/06/22 11:15:52;;;;;;;23.88;7.22;;;;;;;30.95;38.73;94694.16;5018927;28;20037;-81
2021/06/22 11:18:18;;;;;;;17.85;6.65;;;;;;;30.95;38.52;94691.47;5037656;28;20485;-81
2021/06/22 11:20:45;;;;;;;22.17;7.40;;;;;;;31.00;38.56;94683.09;5019974;28;20041;-81
2021/06/22 11:23:12;;;;;;;18.63;6.68;;;;;;;31.01;38.70;94686.53;5004828;28;20089;-81
2021/06/22 11:25:53;;;;;;;25.67;7.07;;;;;;;30.99;39.10;94681.53;5019417;28;20030;-81
2021/06/22 11:28:20;;;;;;;42.65;8.35;;;;;;;31.00;39.05;94683.09;5036073;28;20113;-81
2021/06/22 11:30:50;;;;;;;36.33;8.73;;;;;;;31.07;38.66;94683.16;5002718;28;20064;-81
2021/06/22 11:33:35;;;;;;;27.25;7.55;;;;;;;31.18;38.37;94677.97;5037074;28;20052;-81